createdAt,value
2018-04-12T00:01:57.377Z,14.00
2018-04-12T00:04:24.909Z,14.00
2018-04-12T00:06:52.421Z,14.00
2018-04-12T00:09:20.042Z,13.90
2018-04-12T00:11:47.604Z,14.00
2018-04-12T00:14:15.144Z,14.00
2018-04-12T00:16:43.419Z,14.00
2018-04-12T00:19:10.957Z,14.00
2018-04-12T00:21:38.484Z,14.00
2018-04-12T00:24:06.028Z,14.00
2018-04-12T00:26:33.949Z,14.00
2018-04-12T00:29:01.462Z,14.00
2018-04-12T00:31:28.968Z,14.00
2018-04-12T00:33:57.273Z,14.10
2018-04-12T00:36:25.528Z,14.00
2018-04-12T00:38:53.099Z,14.00
2018-04-12T00:41:20.628Z,14.00
2018-04-12T00:43:48.135Z,13.90
2018-04-12T00:46:15.628Z,13.90
2018-04-12T00:48:43.160Z,13.90
2018-04-12T00:51:10.665Z,13.80
2018-04-12T00:53:50.036Z,13.90
2018-04-12T00:56:17.539Z,13.90
2018-04-12T00:58:45.049Z,13.80
2018-04-12T01:01:12.577Z,13.70
2018-04-12T01:03:40.104Z,13.70
2018-04-12T01:06:07.608Z,13.70
2018-04-12T01:08:35.136Z,13.80
2018-04-12T01:11:02.685Z,13.80
2018-04-12T01:13:30.220Z,13.80
2018-04-12T01:15:57.749Z,13.80
2018-04-12T01:18:25.303Z,13.80
2018-04-12T01:20:52.820Z,13.70
2018-04-12T01:23:20.340Z,13.70
2018-04-12T01:25:47.871Z,13.70
2018-04-12T01:28:15.408Z,13.70
2018-04-12T01:30:42.949Z,13.60
2018-04-12T01:33:17.203Z,13.60
2018-04-12T01:35:44.720Z,13.60
2018-04-12T01:38:12.254Z,13.60
2018-04-12T01:40:39.757Z,13.60
2018-04-12T01:43:07.309Z,13.60
2018-04-12T01:45:35.587Z,13.70
2018-04-12T01:48:03.111Z,13.70
2018-04-12T01:50:30.637Z,13.60
2018-04-12T01:52:58.192Z,13.60
2018-04-12T01:55:25.704Z,13.60
2018-04-12T01:57:53.227Z,13.70
2018-04-12T02:00:21.516Z,13.70
2018-04-12T02:02:49.051Z,13.70
2018-04-12T02:05:16.543Z,13.80
2018-04-12T02:07:44.063Z,13.80
2018-04-12T02:10:11.569Z,13.90
2018-04-12T02:12:39.059Z,13.90
2018-04-12T02:15:07.321Z,13.90
2018-04-12T02:17:34.854Z,13.90
2018-04-12T02:20:03.487Z,13.90
2018-04-12T02:22:31.024Z,13.90
2018-04-12T02:24:58.532Z,13.80
2018-04-12T02:27:26.068Z,13.80
2018-04-12T02:29:53.577Z,13.70
2018-04-12T02:32:21.909Z,13.70
2018-04-12T02:34:49.448Z,13.70
2018-04-12T02:37:16.976Z,13.70
2018-04-12T02:39:44.511Z,13.60
2018-04-12T02:42:12.051Z,13.70
2018-04-12T02:44:39.549Z,13.60
2018-04-12T02:47:07.047Z,13.60
2018-04-12T02:49:34.580Z,13.60
2018-04-12T02:52:02.885Z,13.60
2018-04-12T02:54:31.189Z,13.70
2018-04-12T02:56:59.505Z,13.70
2018-04-12T02:59:27.040Z,13.70
2018-04-12T03:01:54.581Z,13.80
2018-04-12T03:04:22.906Z,13.80
2018-04-12T03:06:50.417Z,13.80
2018-04-12T03:09:17.948Z,13.80
2018-04-12T03:11:46.249Z,13.80
2018-04-12T03:14:14.548Z,13.80
2018-04-12T03:16:42.104Z,13.80
2018-04-12T03:19:09.630Z,13.70
2018-04-12T03:21:37.908Z,13.60
2018-04-12T03:24:05.449Z,13.70
2018-04-12T03:26:33.004Z,13.60
2018-04-12T03:29:00.597Z,13.50
2018-04-12T03:31:28.101Z,13.50
2018-04-12T03:33:55.641Z,13.50
2018-04-12T03:36:23.131Z,13.40
2018-04-12T03:38:50.642Z,13.30
2018-04-12T03:41:18.149Z,13.30
2018-04-12T03:43:45.655Z,13.30
2018-04-12T03:46:13.185Z,13.30
2018-04-12T03:48:41.489Z,13.30
2018-04-12T03:51:08.964Z,13.30
2018-04-12T03:53:37.283Z,13.30
2018-04-12T03:56:04.811Z,13.30
2018-04-12T03:58:32.299Z,13.30
2018-04-12T04:00:59.772Z,13.30
2018-04-12T04:03:27.247Z,13.20
2018-04-12T04:05:55.509Z,13.30
2018-04-12T04:08:23.007Z,13.20
2018-04-12T04:10:50.506Z,13.20
2018-04-12T04:13:18.012Z,13.10
2018-04-12T04:15:57.460Z,13.20
2018-04-12T04:18:36.944Z,13.20
2018-04-12T04:21:09.977Z,13.10
2018-04-12T04:23:37.502Z,13.00
2018-04-12T04:26:05.056Z,13.00
2018-04-12T04:28:32.560Z,13.00
2018-04-12T04:31:01.686Z,13.10
2018-04-12T04:33:29.192Z,13.30
2018-04-12T04:35:56.728Z,13.30
2018-04-12T04:38:24.259Z,13.30
2018-04-12T04:40:51.765Z,13.40
2018-04-12T04:43:19.288Z,13.40
2018-04-12T04:45:46.831Z,13.40
2018-04-12T04:48:14.389Z,13.40
2018-04-12T04:50:41.875Z,13.40
2018-04-12T04:53:09.377Z,13.30
2018-04-12T04:55:36.901Z,13.20
2018-04-12T04:58:05.163Z,13.10
2018-04-12T05:00:32.929Z,13.10
2018-04-12T05:03:00.434Z,13.20
2018-04-12T05:05:27.995Z,13.20
2018-04-12T05:07:58.883Z,13.20
2018-04-12T05:10:26.411Z,13.30
2018-04-12T05:12:53.959Z,13.30
2018-04-12T05:15:21.487Z,13.30
2018-04-12T05:17:49.024Z,13.30
2018-04-12T05:20:22.468Z,13.40
2018-04-12T05:22:49.983Z,13.30
2018-04-12T05:25:17.525Z,13.20
2018-04-12T05:27:45.822Z,13.10
2018-04-12T05:30:13.398Z,13.10
2018-04-12T05:32:40.941Z,13.10
2018-04-12T05:35:08.536Z,13.10
2018-04-12T05:37:50.136Z,13.00
2018-04-12T05:40:30.825Z,13.00
2018-04-12T05:42:58.325Z,13.00
2018-04-12T05:45:25.849Z,13.20
2018-04-12T05:47:53.360Z,13.40
2018-04-12T05:50:20.889Z,13.70
2018-04-12T05:52:48.458Z,14.10
2018-04-12T05:55:16.013Z,14.60
2018-04-12T05:57:43.597Z,14.90
2018-04-12T06:00:19.313Z,15.40
2018-04-12T06:02:46.842Z,15.70
2018-04-12T06:05:15.220Z,16.50
2018-04-12T06:07:42.932Z,16.40
2018-04-12T06:10:20.719Z,17.10
2018-04-12T06:12:48.969Z,17.50
2018-04-12T06:15:16.500Z,17.50
2018-04-12T06:17:44.036Z,17.70
2018-04-12T06:20:12.440Z,17.90
2018-04-12T06:22:39.966Z,17.90
2018-04-12T06:25:07.525Z,17.90
2018-04-12T06:27:35.063Z,18.30
2018-04-12T06:30:03.351Z,18.90
2018-04-12T06:32:30.873Z,18.90
2018-04-12T06:34:58.440Z,18.40
2018-04-12T06:37:26.823Z,17.70
2018-04-12T06:39:54.390Z,17.70
2018-04-12T06:42:21.908Z,17.90
2018-04-12T06:44:49.424Z,18.50
2018-04-12T06:47:17.710Z,19.10
2018-04-12T06:49:45.225Z,19.10
2018-04-12T06:52:13.491Z,19.10
2018-04-12T06:54:40.992Z,19.10
2018-04-12T06:57:08.508Z,18.80
2018-04-12T06:59:36.121Z,19.10
2018-04-12T07:02:03.623Z,19.50
2018-04-12T07:04:31.147Z,20.00
2018-04-12T07:06:58.672Z,19.80
2018-04-12T07:09:26.212Z,20.10
2018-04-12T07:11:53.757Z,21.00
2018-04-12T07:14:21.286Z,21.10
2018-04-12T07:16:48.805Z,20.60
2018-04-12T07:19:16.373Z,20.60
2018-04-12T07:21:44.681Z,21.60
2018-04-12T07:24:12.201Z,21.60
2018-04-12T07:26:39.728Z,21.50
2018-04-12T07:29:07.228Z,21.40
2018-04-12T07:31:34.763Z,22.30
2018-04-12T07:34:02.284Z,21.80
2018-04-12T07:36:29.789Z,21.50
2018-04-12T07:38:57.285Z,21.60
2018-04-12T07:41:25.570Z,20.70
2018-04-12T07:43:53.079Z,20.70
2018-04-12T07:46:21.373Z,21.60
2018-04-12T07:48:49.677Z,20.40
2018-04-12T07:51:17.964Z,20.20
2018-04-12T07:53:45.474Z,20.20
2018-04-12T07:56:13.749Z,20.80
2018-04-12T07:58:41.276Z,20.80
2018-04-12T08:01:08.833Z,21.40
2018-04-12T08:03:36.353Z,22.30
2018-04-12T08:06:03.914Z,22.50
2018-04-12T08:08:32.244Z,22.60
2018-04-12T08:10:59.771Z,22.50
2018-04-12T08:13:27.308Z,22.40
2018-04-12T08:15:55.580Z,22.60
2018-04-12T08:18:23.156Z,22.60
2018-04-12T08:20:50.696Z,22.90
2018-04-12T08:23:18.188Z,23.70
2018-04-12T08:25:45.705Z,23.40
2018-04-12T08:28:13.208Z,23.70
2018-04-12T08:30:40.712Z,24.00
2018-04-12T08:33:08.224Z,24.20
2018-04-12T08:35:35.769Z,25.20
2018-04-12T08:38:03.297Z,24.80
2018-04-12T08:40:30.799Z,25.70
2018-04-12T08:42:58.330Z,24.50
2018-04-12T08:45:25.861Z,23.70
2018-04-12T08:47:53.395Z,24.50
2018-04-12T08:50:20.903Z,24.80
2018-04-12T08:52:49.188Z,23.30
2018-04-12T08:55:16.742Z,23.20
2018-04-12T08:57:44.270Z,23.40
2018-04-12T09:00:11.778Z,23.00
2018-04-12T09:02:39.334Z,22.70
2018-04-12T09:05:06.893Z,22.80
2018-04-12T09:07:34.425Z,22.50
2018-04-12T09:10:02.724Z,21.80
2018-04-12T09:12:30.245Z,21.70
2018-04-12T09:14:57.755Z,21.50
2018-04-12T09:17:25.272Z,21.50
2018-04-12T09:19:53.564Z,20.30
2018-04-12T09:22:21.109Z,20.30
2018-04-12T09:24:48.624Z,20.00
2018-04-12T09:27:16.165Z,20.20
2018-04-12T09:29:43.667Z,20.40
2018-04-12T09:32:11.217Z,21.00
2018-04-12T09:34:39.522Z,21.50
2018-04-12T09:37:07.058Z,21.40
2018-04-12T09:39:35.467Z,21.30
2018-04-12T09:42:03.007Z,21.00
2018-04-12T09:44:30.549Z,20.80
2018-04-12T09:46:58.056Z,21.20
2018-04-12T09:49:25.652Z,22.10
2018-04-12T09:51:53.143Z,22.50
2018-04-12T09:54:21.409Z,24.40
2018-04-12T09:56:48.940Z,24.30
2018-04-12T09:59:16.479Z,25.60
2018-04-12T10:01:49.755Z,25.90
2018-04-12T10:04:17.299Z,26.10
2018-04-12T10:06:51.305Z,27.50
2018-04-12T10:09:18.837Z,27.50
2018-04-12T10:11:47.151Z,25.70
2018-04-12T10:14:14.679Z,25.60
2018-04-12T10:16:42.219Z,24.70
2018-04-12T10:19:10.498Z,24.00
2018-04-12T10:21:38.763Z,24.70
2018-04-12T10:24:06.302Z,24.70
2018-04-12T10:26:34.383Z,25.30
2018-04-12T10:29:02.657Z,25.60
2018-04-12T10:31:30.180Z,25.50
2018-04-12T10:33:57.709Z,25.00
2018-04-12T10:36:25.228Z,25.10
2018-04-12T10:38:53.503Z,23.60
2018-04-12T10:41:21.014Z,23.50
2018-04-12T10:43:49.316Z,23.30
2018-04-12T10:46:17.622Z,24.40
2018-04-12T10:48:45.968Z,26.20
2018-04-12T10:51:13.465Z,26.10
2018-04-12T10:53:41.003Z,27.20
2018-04-12T10:56:08.547Z,27.20
2018-04-12T10:58:36.096Z,25.00
2018-04-12T11:01:04.373Z,23.60
2018-04-12T11:03:31.926Z,23.60
2018-04-12T11:05:59.466Z,24.00
2018-04-12T11:08:26.984Z,24.70
2018-04-12T11:10:54.567Z,24.60
2018-04-12T11:13:22.102Z,23.90
2018-04-12T11:15:49.628Z,23.70
2018-04-12T11:18:17.158Z,23.30
2018-04-12T11:20:44.675Z,23.40
2018-04-12T11:23:12.209Z,24.70
2018-04-12T11:25:40.518Z,27.00
2018-04-12T11:28:08.802Z,27.90
2018-04-12T11:30:37.104Z,28.50
2018-04-12T11:33:05.402Z,26.60
2018-04-12T11:35:33.197Z,26.50
2018-04-12T11:38:00.696Z,27.00
2018-04-12T11:40:28.251Z,27.40
2018-04-12T11:42:56.589Z,26.90
2018-04-12T11:45:24.931Z,26.10
2018-04-12T11:47:53.224Z,24.80
2018-04-12T11:50:20.727Z,24.80
2018-04-12T11:52:48.241Z,24.30
2018-04-12T11:55:15.745Z,24.10
2018-04-12T11:57:43.407Z,23.90
2018-04-12T12:00:10.898Z,24.10
2018-04-12T12:02:39.097Z,23.90
2018-04-12T12:05:06.724Z,23.40
2018-04-12T12:07:34.340Z,23.40
2018-04-12T12:10:01.987Z,23.30
2018-04-12T12:12:29.507Z,23.70
2018-04-12T12:14:57.792Z,23.50
2018-04-12T12:17:25.398Z,23.50
2018-04-12T12:19:54.687Z,25.40
2018-04-12T12:22:22.986Z,25.40
2018-04-12T12:24:51.267Z,24.40
2018-04-12T12:27:18.900Z,24.30
2018-04-12T12:29:49.816Z,23.70
2018-04-12T12:32:18.227Z,22.50
2018-04-12T12:34:45.925Z,22.40
2018-04-12T12:37:13.526Z,22.50
2018-04-12T12:39:41.075Z,22.20
2018-04-12T12:42:08.745Z,22.30
2018-04-12T12:44:36.536Z,22.30
2018-04-12T12:47:04.195Z,22.50
2018-04-12T12:49:32.560Z,22.50
2018-04-12T12:52:00.874Z,22.50
2018-04-12T12:54:28.412Z,22.40
2018-04-12T12:56:56.014Z,22.60
2018-04-12T12:59:23.626Z,22.30
2018-04-12T13:01:52.717Z,22.00
2018-04-12T13:04:20.259Z,21.90
2018-04-12T13:06:47.793Z,21.90
2018-04-12T13:09:15.385Z,21.90
2018-04-12T13:11:42.908Z,22.10
2018-04-12T13:14:10.445Z,22.00
2018-04-12T13:16:38.049Z,21.90
2018-04-12T13:19:05.504Z,21.80
2018-04-12T13:21:33.036Z,21.70
2018-04-12T13:24:00.584Z,22.20
2018-04-12T13:26:28.114Z,22.60
2018-04-12T13:28:55.631Z,23.60
2018-04-12T13:31:23.173Z,24.10
2018-04-12T13:33:50.697Z,23.90
2018-04-12T13:36:24.870Z,23.60
2018-04-12T13:38:52.397Z,23.60
2018-04-12T13:41:19.925Z,23.00
2018-04-12T13:43:47.481Z,22.50
2018-04-12T13:46:14.976Z,22.10
2018-04-12T13:48:42.529Z,21.90
2018-04-12T13:51:10.163Z,21.70
2018-04-12T13:53:37.717Z,21.60
2018-04-12T13:56:05.280Z,21.70
2018-04-12T13:58:32.799Z,21.90
2018-04-12T14:01:00.328Z,21.70
2018-04-12T14:06:21.335Z,21.80
2018-04-12T14:08:48.868Z,21.80
2018-04-12T14:11:16.359Z,21.60
2018-04-12T14:13:43.885Z,22.00
2018-04-12T14:16:11.419Z,22.30
2018-04-12T14:18:38.941Z,22.00
2018-04-12T14:21:06.508Z,22.40
2018-04-12T14:23:34.117Z,22.20
2018-04-12T14:26:01.686Z,21.90
2018-04-12T14:28:29.239Z,22.20
2018-04-12T14:30:56.756Z,22.80
2018-04-12T14:33:24.341Z,23.10
2018-04-12T14:35:52.005Z,23.10
2018-04-12T14:38:19.526Z,23.90
2018-04-12T14:40:47.241Z,25.10
2018-04-12T14:43:15.562Z,25.20
2018-04-12T14:45:43.157Z,25.20
2018-04-12T14:48:10.806Z,23.60
2018-04-12T14:50:38.411Z,23.00
2018-04-12T14:53:06.120Z,22.50
2018-04-12T14:55:34.611Z,22.80
2018-04-12T14:58:02.153Z,22.80
2018-04-12T15:00:30.515Z,23.00
2018-04-12T15:02:58.149Z,22.90
2018-04-12T15:05:26.483Z,22.00
2018-04-12T15:07:57.156Z,22.00
2018-04-12T15:10:24.762Z,21.30
2018-04-12T15:12:52.281Z,21.20
2018-04-12T15:15:20.672Z,20.70
2018-04-12T15:17:48.351Z,20.60
2018-04-12T15:20:16.056Z,20.50
2018-04-12T15:22:43.617Z,20.20
2018-04-12T15:25:11.156Z,20.30
2018-04-12T15:27:38.701Z,20.30
2018-04-12T15:30:06.448Z,20.30
2018-04-12T15:32:34.340Z,20.00
2018-04-12T15:35:02.016Z,20.00
2018-04-12T15:37:29.540Z,19.90
2018-04-12T15:39:57.118Z,19.80
2018-04-12T15:42:24.703Z,19.90
2018-04-12T15:44:53.060Z,19.80
2018-04-12T15:47:20.600Z,19.80
2018-04-12T15:49:48.107Z,19.80
2018-04-12T15:52:15.677Z,19.70
2018-04-12T15:54:43.201Z,19.70
2018-04-12T15:57:10.784Z,19.70
2018-04-12T15:59:39.176Z,19.60
2018-04-12T16:02:07.776Z,19.50
2018-04-12T16:04:35.438Z,19.50
2018-04-12T16:07:03.036Z,19.40
2018-04-12T16:09:30.593Z,19.30
2018-04-12T16:11:58.137Z,19.20
2018-04-12T16:14:26.403Z,19.10
2018-04-12T16:16:53.982Z,19.10
2018-04-12T16:19:21.538Z,19.10
2018-04-12T16:21:49.067Z,19.10
2018-04-12T16:24:16.601Z,19.20
2018-04-12T16:26:44.888Z,19.30
2018-04-12T16:29:12.393Z,19.30
2018-04-12T16:31:40.696Z,19.20
2018-04-12T16:34:09.052Z,19.20
2018-04-12T16:36:36.642Z,19.20
2018-04-12T16:39:05.310Z,19.20
2018-04-12T16:41:33.931Z,19.20
2018-04-12T16:44:01.484Z,19.20
2018-04-12T16:46:29.040Z,19.10
2018-04-12T16:48:56.633Z,19.10
2018-04-12T16:51:24.953Z,19.00
2018-04-12T16:53:53.268Z,19.00
2018-04-12T16:56:21.568Z,19.00
2018-04-12T16:58:49.097Z,19.00
2018-04-12T17:01:16.608Z,18.90
2018-04-12T17:03:44.182Z,18.90
2018-04-12T17:06:18.919Z,18.80
2018-04-12T17:08:47.225Z,18.60
2018-04-12T17:11:14.811Z,18.60
2018-04-12T17:13:42.421Z,18.60
2018-04-12T17:16:09.929Z,18.50
2018-04-12T17:18:38.316Z,18.40
2018-04-12T17:21:06.057Z,18.40
2018-04-12T17:23:33.682Z,18.40
2018-04-12T17:26:01.303Z,18.30
2018-04-12T17:28:28.932Z,18.10
2018-04-12T17:30:56.532Z,18.10
2018-04-12T17:33:24.028Z,18.00
2018-04-12T17:35:51.555Z,17.90
2018-04-12T17:38:26.306Z,17.80
2018-04-12T17:40:53.972Z,17.80
2018-04-12T17:43:22.428Z,17.70
2018-04-12T17:45:49.953Z,17.70
2018-04-12T17:48:18.273Z,17.60
2018-04-12T17:50:45.943Z,17.60
2018-04-12T17:53:13.496Z,17.70
2018-04-12T17:55:41.109Z,17.70
2018-04-12T17:58:08.914Z,17.70
2018-04-12T18:00:37.263Z,17.70
2018-04-12T18:03:04.776Z,17.70
2018-04-12T18:05:33.129Z,17.50
2018-04-12T18:08:00.840Z,17.50
2018-04-12T18:10:28.371Z,17.40
2018-04-12T18:12:56.924Z,17.20
2018-04-12T18:15:24.445Z,17.30
2018-04-12T18:17:51.998Z,17.30
2018-04-12T18:20:19.549Z,17.50
2018-04-12T18:22:47.092Z,17.60
2018-04-12T18:25:14.724Z,17.60
2018-04-12T18:27:42.268Z,17.50
2018-04-12T18:30:11.706Z,17.30
2018-04-12T18:32:39.323Z,17.30
2018-04-12T18:35:06.880Z,17.20
2018-04-12T18:37:35.275Z,17.00
2018-04-12T18:40:02.956Z,16.90
2018-04-12T18:42:31.365Z,16.80
2018-04-12T18:44:58.896Z,16.80
2018-04-12T18:47:26.732Z,16.80
2018-04-12T18:49:54.835Z,16.70
2018-04-12T18:52:22.785Z,16.70
2018-04-12T18:54:50.690Z,16.60
2018-04-12T18:57:19.206Z,16.60
2018-04-12T18:59:46.800Z,16.60
2018-04-12T19:02:14.707Z,16.60
2018-04-12T19:04:42.312Z,16.50
2018-04-12T19:07:10.820Z,16.50
2018-04-12T19:09:38.417Z,16.40
2018-04-12T19:12:06.821Z,16.30
2018-04-12T19:14:34.357Z,16.30
2018-04-12T19:17:01.932Z,16.20
2018-04-12T19:19:29.444Z,16.00
2018-04-12T19:21:57.895Z,15.80
2018-04-12T19:24:25.550Z,15.70
2018-04-12T19:26:53.182Z,15.60
2018-04-12T19:29:20.729Z,15.50
2018-04-12T19:31:48.248Z,15.40
2018-04-12T19:34:15.747Z,15.20
2018-04-12T19:36:43.307Z,15.10
2018-04-12T19:39:10.870Z,15.00
2018-04-12T19:41:38.391Z,14.90
2018-04-12T19:44:05.965Z,14.80
2018-04-12T19:46:34.873Z,14.70
2018-04-12T19:49:02.404Z,14.70
2018-04-12T19:51:29.955Z,14.70
2018-04-12T19:53:57.489Z,14.60
2018-04-12T19:56:25.014Z,14.60
2018-04-12T19:58:53.297Z,14.40
2018-04-12T20:01:20.844Z,14.40
2018-04-12T20:03:48.463Z,14.30
2018-04-12T20:06:16.007Z,14.10
2018-04-12T20:08:44.291Z,13.80
2018-04-12T20:11:11.824Z,13.70
2018-04-12T20:13:39.373Z,13.60
2018-04-12T20:16:06.947Z,13.50
2018-04-12T20:18:34.503Z,13.30
2018-04-12T20:21:02.088Z,13.20
2018-04-12T20:23:29.639Z,13.10
2018-04-12T20:25:57.208Z,12.90
2018-04-12T20:28:24.747Z,12.90
2018-04-12T20:30:52.369Z,12.80
2018-04-12T20:33:19.934Z,12.70
2018-04-12T20:35:47.496Z,12.70
2018-04-12T20:38:15.034Z,12.70
2018-04-12T20:40:42.571Z,12.70
2018-04-12T20:43:10.109Z,12.60
2018-04-12T20:45:37.664Z,12.50
2018-04-12T20:48:05.272Z,12.30
2018-04-12T20:50:32.784Z,12.20
2018-04-12T20:53:01.101Z,12.10
2018-04-12T20:55:28.632Z,12.00
2018-04-12T20:57:56.161Z,12.00
2018-04-12T21:00:23.713Z,11.90
2018-04-12T21:02:51.235Z,11.90
2018-04-12T21:05:19.598Z,11.90
2018-04-12T21:07:50.219Z,12.00
2018-04-12T21:10:17.784Z,11.90
2018-04-12T21:12:45.325Z,12.00
2018-04-12T21:15:12.839Z,11.90
2018-04-12T21:17:41.103Z,11.90
2018-04-12T21:20:08.670Z,11.90
2018-04-12T21:22:36.232Z,11.90
2018-04-12T21:25:04.112Z,11.90
2018-04-12T21:27:32.452Z,11.90
2018-04-12T21:29:59.980Z,11.90
2018-04-12T21:32:29.518Z,11.90
2018-04-12T21:35:02.565Z,12.10
2018-04-12T21:37:36.574Z,12.30
2018-04-12T21:40:23.235Z,12.50
2018-04-12T21:42:50.732Z,12.70
2018-04-12T21:45:18.301Z,12.90
2018-04-12T21:47:45.792Z,13.00
2018-04-12T21:50:13.362Z,13.10
2018-04-12T21:52:40.889Z,13.20
2018-04-12T21:55:08.457Z,13.20
2018-04-12T21:57:36.011Z,13.20
2018-04-12T22:00:03.553Z,13.00
2018-04-12T22:02:31.059Z,12.70
2018-04-12T22:04:58.580Z,12.50
2018-04-12T22:07:26.148Z,12.30
2018-04-12T22:09:53.689Z,12.10
2018-04-12T22:12:21.195Z,12.00
2018-04-12T22:14:48.683Z,11.90
2018-04-12T22:17:16.224Z,11.80
2018-04-12T22:19:44.521Z,11.70
2018-04-12T22:22:12.816Z,11.70
2018-04-12T22:24:40.344Z,11.60
2018-04-12T22:27:07.896Z,11.60
2018-04-12T22:29:36.192Z,11.50
2018-04-12T22:32:04.496Z,11.50
2018-04-12T22:34:32.764Z,11.30
2018-04-12T22:37:00.288Z,11.30
2018-04-12T22:39:27.823Z,11.20
2018-04-12T22:41:55.344Z,11.30
2018-04-12T22:44:23.637Z,11.10
2018-04-12T22:46:51.192Z,11.10
2018-04-12T22:49:18.712Z,11.00
2018-04-12T22:51:46.995Z,10.80
2018-04-12T22:54:14.498Z,10.80
2018-04-12T22:56:42.828Z,10.60
2018-04-12T22:59:10.357Z,10.60
2018-04-12T23:01:37.914Z,10.70
2018-04-12T23:04:05.460Z,10.60
2018-04-12T23:06:33.818Z,10.50
2018-04-12T23:09:01.357Z,10.50
2018-04-12T23:11:28.882Z,10.30
2018-04-12T23:13:56.392Z,10.30
2018-04-12T23:16:23.877Z,10.30
2018-04-12T23:18:51.395Z,10.20
2018-04-12T23:21:18.889Z,10.20
2018-04-12T23:23:46.393Z,10.10
2018-04-12T23:26:13.916Z,10.10
2018-04-12T23:28:42.192Z,10.20
2018-04-12T23:31:09.719Z,10.10
2018-04-12T23:33:38.008Z,10.40
2018-04-12T23:36:05.549Z,10.40
2018-04-12T23:38:33.113Z,10.50
2018-04-12T23:41:00.655Z,10.60
2018-04-12T23:43:28.204Z,10.60
2018-04-12T23:45:55.696Z,10.60
2018-04-12T23:48:23.236Z,10.40
2018-04-12T23:50:50.786Z,10.40
2018-04-12T23:53:19.080Z,10.60
2018-04-12T23:55:46.618Z,10.60
2018-04-12T23:58:14.176Z,10.70
